sensor_id;sensor_type;location;lat;lon;timestamp;temperature;humidity
11246;DHT22;59870;50.106;8.580;2024-01-30T00:00:37;6.80;91.80
11246;DHT22;59870;50.106;8.580;2024-01-30T00:03:05;7.20;92.20
11246;DHT22;59870;50.106;8.580;2024-01-30T00:05:32;6.70;92.00
11246;DHT22;59870;50.106;8.580;2024-01-30T00:08:00;6.70;91.90
11246;DHT22;59870;50.106;8.580;2024-01-30T00:10:28;6.80;92.10
11246;DHT22;59870;50.106;8.580;2024-01-30T00:12:56;6.70;92.10
11246;DHT22;59870;50.106;8.580;2024-01-30T00:15:24;6.70;92.00
11246;DHT22;59870;50.106;8.580;2024-01-30T00:17:51;6.70;92.00
11246;DHT22;59870;50.106;8.580;2024-01-30T00:20:20;6.70;91.80
11246;DHT22;59870;50.106;8.580;2024-01-30T00:22:48;6.60;91.90
11246;DHT22;59870;50.106;8.580;2024-01-30T00:25:16;6.20;91.80
11246;DHT22;59870;50.106;8.580;2024-01-30T00:27:44;6.60;91.90
11246;DHT22;59870;50.106;8.580;2024-01-30T00:30:12;7.00;91.90
11246;DHT22;59870;50.106;8.580;2024-01-30T00:32:39;6.60;92.00
11246;DHT22;59870;50.106;8.580;2024-01-30T00:35:07;6.60;92.00
11246;DHT22;59870;50.106;8.580;2024-01-30T00:37:37;6.60;92.10
11246;DHT22;59870;50.106;8.580;2024-01-30T00:40:04;6.50;92.30
11246;DHT22;59870;50.106;8.580;2024-01-30T00:42:34;6.50;92.10
11246;DHT22;59870;50.106;8.580;2024-01-30T00:45:01;6.50;92.10
11246;DHT22;59870;50.106;8.580;2024-01-30T00:47:29;6.50;92.10
11246;DHT22;59870;50.106;8.580;2024-01-30T00:49:56;6.50;92.10
11246;DHT22;59870;50.106;8.580;2024-01-30T00:52:24;6.70;92.00
11246;DHT22;59870;50.106;8.580;2024-01-30T00:54:51;6.40;92.10
11246;DHT22;59870;50.106;8.580;2024-01-30T00:57:19;6.40;92.10
11246;DHT22;59870;50.106;8.580;2024-01-30T00:59:46;6.30;91.90
11246;DHT22;59870;50.106;8.580;2024-01-30T01:02:14;6.30;91.90
11246;DHT22;59870;50.106;8.580;2024-01-30T01:04:44;6.30;92.00
11246;DHT22;59870;50.106;8.580;2024-01-30T01:07:12;6.30;92.00
11246;DHT22;59870;50.106;8.580;2024-01-30T01:09:40;6.20;92.00
11246;DHT22;59870;50.106;8.580;2024-01-30T01:12:08;6.30;91.80
11246;DHT22;59870;50.106;8.580;2024-01-30T01:14:35;6.20;92.00
11246;DHT22;59870;50.106;8.580;2024-01-30T01:17:03;6.20;92.10
11246;DHT22;59870;50.106;8.580;2024-01-30T01:19:31;6.50;92.20
11246;DHT22;59870;50.106;8.580;2024-01-30T01:21:59;6.10;92.10
11246;DHT22;59870;50.106;8.580;2024-01-30T01:24:27;6.10;92.20
11246;DHT22;59870;50.106;8.580;2024-01-30T01:26:54;6.10;92.10
11246;DHT22;59870;50.106;8.580;2024-01-30T01:29:24;6.10;92.10
11246;DHT22;59870;50.106;8.580;2024-01-30T01:31:56;6.00;92.10
11246;DHT22;59870;50.106;8.580;2024-01-30T01:34:24;6.60;92.50
11246;DHT22;59870;50.106;8.580;2024-01-30T01:36:57;6.00;92.00
11246;DHT22;59870;50.106;8.580;2024-01-30T01:39:25;6.00;92.20
11246;DHT22;59870;50.106;8.580;2024-01-30T01:41:52;5.50;92.00
11246;DHT22;59870;50.106;8.580;2024-01-30T01:44:20;6.30;92.30
11246;DHT22;59870;50.106;8.580;2024-01-30T01:46:47;6.10;92.30
11246;DHT22;59870;50.106;8.580;2024-01-30T01:49:15;5.90;92.10
11246;DHT22;59870;50.106;8.580;2024-01-30T01:51:43;6.20;92.40
11246;DHT22;59870;50.106;8.580;2024-01-30T01:54:12;5.90;92.40
11246;DHT22;59870;50.106;8.580;2024-01-30T01:56:42;5.80;92.40
11246;DHT22;59870;50.106;8.580;2024-01-30T01:59:10;5.80;92.50
11246;DHT22;59870;50.106;8.580;2024-01-30T02:01:38;5.80;92.20
11246;DHT22;59870;50.106;8.580;2024-01-30T02:04:08;6.10;92.60
11246;DHT22;59870;50.106;8.580;2024-01-30T02:06:36;5.70;92.30
11246;DHT22;59870;50.106;8.580;2024-01-30T02:09:05;5.70;92.30
11246;DHT22;59870;50.106;8.580;2024-01-30T02:11:32;5.70;92.40
11246;DHT22;59870;50.106;8.580;2024-01-30T02:14:04;5.70;92.40
11246;DHT22;59870;50.106;8.580;2024-01-30T02:16:32;5.70;92.40
11246;DHT22;59870;50.106;8.580;2024-01-30T02:19:00;5.80;92.40
11246;DHT22;59870;50.106;8.580;2024-01-30T02:21:31;6.00;92.60
11246;DHT22;59870;50.106;8.580;2024-01-30T02:23:58;5.70;92.50
11246;DHT22;59870;50.106;8.580;2024-01-30T02:26:27;5.60;92.70
11246;DHT22;59870;50.106;8.580;2024-01-30T02:28:55;5.60;92.70
11246;DHT22;59870;50.106;8.580;2024-01-30T02:31:22;5.60;92.70
11246;DHT22;59870;50.106;8.580;2024-01-30T02:33:51;5.90;92.90
11246;DHT22;59870;50.106;8.580;2024-01-30T02:36:19;5.90;92.80
11246;DHT22;59870;50.106;8.580;2024-01-30T02:38:47;5.60;92.70
11246;DHT22;59870;50.106;8.580;2024-01-30T02:41:14;5.60;92.70
11246;DHT22;59870;50.106;8.580;2024-01-30T02:43:42;5.50;92.70
11246;DHT22;59870;50.106;8.580;2024-01-30T02:46:10;5.50;92.70
11246;DHT22;59870;50.106;8.580;2024-01-30T02:48:37;5.50;92.70
11246;DHT22;59870;50.106;8.580;2024-01-30T02:51:07;5.50;92.80
11246;DHT22;59870;50.106;8.580;2024-01-30T02:53:35;5.60;93.10
11246;DHT22;59870;50.106;8.580;2024-01-30T02:56:03;5.50;92.80
11246;DHT22;59870;50.106;8.580;2024-01-30T02:58:31;5.50;92.80
11246;DHT22;59870;50.106;8.580;2024-01-30T03:00:58;5.80;93.00
11246;DHT22;59870;50.106;8.580;2024-01-30T03:03:26;5.50;93.10
11246;DHT22;59870;50.106;8.580;2024-01-30T03:05:54;5.50;93.20
11246;DHT22;59870;50.106;8.580;2024-01-30T03:08:21;5.80;93.70
11246;DHT22;59870;50.106;8.580;2024-01-30T03:10:49;5.50;93.20
11246;DHT22;59870;50.106;8.580;2024-01-30T03:13:16;5.70;93.00
11246;DHT22;59870;50.106;8.580;2024-01-30T03:15:44;5.40;93.20
11246;DHT22;59870;50.106;8.580;2024-01-30T03:18:11;5.30;93.10
11246;DHT22;59870;50.106;8.580;2024-01-30T03:20:39;5.30;93.20
11246;DHT22;59870;50.106;8.580;2024-01-30T03:23:06;5.30;93.10
11246;DHT22;59870;50.106;8.580;2024-01-30T03:25:34;5.60;93.30
11246;DHT22;59870;50.106;8.580;2024-01-30T03:28:01;5.30;93.20
11246;DHT22;59870;50.106;8.580;2024-01-30T03:30:29;5.30;93.20
11246;DHT22;59870;50.106;8.580;2024-01-30T03:32:57;5.80;93.50
11246;DHT22;59870;50.106;8.580;2024-01-30T03:35:24;5.20;93.50
11246;DHT22;59870;50.106;8.580;2024-01-30T03:37:52;5.20;93.20
11246;DHT22;59870;50.106;8.580;2024-01-30T03:40:19;5.20;93.10
11246;DHT22;59870;50.106;8.580;2024-01-30T03:42:48;5.20;93.10
11246;DHT22;59870;50.106;8.580;2024-01-30T03:45:15;5.30;93.20
11246;DHT22;59870;50.106;8.580;2024-01-30T03:47:43;5.20;93.10
11246;DHT22;59870;50.106;8.580;2024-01-30T03:50:11;5.20;93.10
11246;DHT22;59870;50.106;8.580;2024-01-30T03:52:38;5.20;93.10
11246;DHT22;59870;50.106;8.580;2024-01-30T03:55:06;5.10;93.00
11246;DHT22;59870;50.106;8.580;2024-01-30T03:57:34;5.20;93.00
11246;DHT22;59870;50.106;8.580;2024-01-30T04:00:01;5.20;93.00
11246;DHT22;59870;50.106;8.580;2024-01-30T04:02:38;5.10;93.00
11246;DHT22;59870;50.106;8.580;2024-01-30T04:05:06;5.50;93.10
11246;DHT22;59870;50.106;8.580;2024-01-30T04:07:33;5.10;93.20
11246;DHT22;59870;50.106;8.580;2024-01-30T04:10:01;5.50;93.10
11246;DHT22;59870;50.106;8.580;2024-01-30T04:12:28;5.10;93.20
11246;DHT22;59870;50.106;8.580;2024-01-30T04:14:56;5.00;93.10
11246;DHT22;59870;50.106;8.580;2024-01-30T04:17:24;5.00;93.20
11246;DHT22;59870;50.106;8.580;2024-01-30T04:19:51;5.00;93.20
11246;DHT22;59870;50.106;8.580;2024-01-30T04:22:19;5.00;93.10
11246;DHT22;59870;50.106;8.580;2024-01-30T04:24:47;5.00;93.20
11246;DHT22;59870;50.106;8.580;2024-01-30T04:27:14;5.00;93.30
11246;DHT22;59870;50.106;8.580;2024-01-30T04:29:41;5.00;93.30
11246;DHT22;59870;50.106;8.580;2024-01-30T04:32:09;5.00;93.40
11246;DHT22;59870;50.106;8.580;2024-01-30T04:34:37;5.00;93.40
11246;DHT22;59870;50.106;8.580;2024-01-30T04:37:05;4.90;93.40
11246;DHT22;59870;50.106;8.580;2024-01-30T04:39:35;5.00;93.40
11246;DHT22;59870;50.106;8.580;2024-01-30T04:42:04;5.00;93.40
11246;DHT22;59870;50.106;8.580;2024-01-30T04:44:35;5.00;93.40
11246;DHT22;59870;50.106;8.580;2024-01-30T04:47:03;5.30;93.60
11246;DHT22;59870;50.106;8.580;2024-01-30T04:49:33;5.00;93.60
11246;DHT22;59870;50.106;8.580;2024-01-30T04:52:01;5.00;93.70
11246;DHT22;59870;50.106;8.580;2024-01-30T04:54:28;5.00;93.80
11246;DHT22;59870;50.106;8.580;2024-01-30T04:56:55;4.90;93.80
11246;DHT22;59870;50.106;8.580;2024-01-30T04:59:23;4.90;93.80
11246;DHT22;59870;50.106;8.580;2024-01-30T05:01:52;4.90;93.70
11246;DHT22;59870;50.106;8.580;2024-01-30T05:04:20;4.90;93.60
11246;DHT22;59870;50.106;8.580;2024-01-30T05:06:47;4.90;93.60
11246;DHT22;59870;50.106;8.580;2024-01-30T05:09:15;5.30;93.70
11246;DHT22;59870;50.106;8.580;2024-01-30T05:11:43;5.20;93.70
11246;DHT22;59870;50.106;8.580;2024-01-30T05:14:10;4.80;93.50
11246;DHT22;59870;50.106;8.580;2024-01-30T05:16:39;4.90;93.50
11246;DHT22;59870;50.106;8.580;2024-01-30T05:19:06;4.80;93.50
11246;DHT22;59870;50.106;8.580;2024-01-30T05:21:34;4.80;93.50
11246;DHT22;59870;50.106;8.580;2024-01-30T05:24:02;5.20;93.60
11246;DHT22;59870;50.106;8.580;2024-01-30T05:26:31;4.80;93.30
11246;DHT22;59870;50.106;8.580;2024-01-30T05:28:59;4.80;93.40
11246;DHT22;59870;50.106;8.580;2024-01-30T05:31:27;4.80;93.30
11246;DHT22;59870;50.106;8.580;2024-01-30T05:33:55;4.80;93.30
11246;DHT22;59870;50.106;8.580;2024-01-30T05:36:23;4.70;93.30
11246;DHT22;59870;50.106;8.580;2024-01-30T05:38:50;4.80;93.40
11246;DHT22;59870;50.106;8.580;2024-01-30T05:41:18;5.10;93.50
11246;DHT22;59870;50.106;8.580;2024-01-30T05:43:46;4.70;93.40
11246;DHT22;59870;50.106;8.580;2024-01-30T05:46:13;4.70;93.30
11246;DHT22;59870;50.106;8.580;2024-01-30T05:48:41;4.80;93.40
11246;DHT22;59870;50.106;8.580;2024-01-30T05:51:09;4.70;93.40
11246;DHT22;59870;50.106;8.580;2024-01-30T05:53:37;4.70;93.40
11246;DHT22;59870;50.106;8.580;2024-01-30T05:56:06;5.00;93.50
11246;DHT22;59870;50.106;8.580;2024-01-30T05:58:33;4.70;93.50
11246;DHT22;59870;50.106;8.580;2024-01-30T06:01:01;4.70;93.50
11246;DHT22;59870;50.106;8.580;2024-01-30T06:03:28;4.70;93.50
11246;DHT22;59870;50.106;8.580;2024-01-30T06:05:56;4.60;93.50
11246;DHT22;59870;50.106;8.580;2024-01-30T06:08:23;4.90;93.70
11246;DHT22;59870;50.106;8.580;2024-01-30T06:10:50;4.60;93.60
11246;DHT22;59870;50.106;8.580;2024-01-30T06:13:19;4.60;93.60
11246;DHT22;59870;50.106;8.580;2024-01-30T06:15:47;4.60;93.60
11246;DHT22;59870;50.106;8.580;2024-01-30T06:18:15;4.60;93.60
11246;DHT22;59870;50.106;8.580;2024-01-30T06:20:42;5.00;93.70
11246;DHT22;59870;50.106;8.580;2024-01-30T06:23:10;5.00;93.80
11246;DHT22;59870;50.106;8.580;2024-01-30T06:26:06;4.60;93.60
11246;DHT22;59870;50.106;8.580;2024-01-30T06:28:33;4.50;93.60
11246;DHT22;59870;50.106;8.580;2024-01-30T06:31:02;4.60;93.60
11246;DHT22;59870;50.106;8.580;2024-01-30T06:33:30;4.90;93.60
11246;DHT22;59870;50.106;8.580;2024-01-30T06:35:57;4.50;93.60
11246;DHT22;59870;50.106;8.580;2024-01-30T06:38:25;4.90;93.70
11246;DHT22;59870;50.106;8.580;2024-01-30T06:40:52;4.50;93.70
11246;DHT22;59870;50.106;8.580;2024-01-30T06:43:20;4.50;93.70
11246;DHT22;59870;50.106;8.580;2024-01-30T06:45:50;4.20;93.60
11246;DHT22;59870;50.106;8.580;2024-01-30T06:48:19;4.50;93.70
11246;DHT22;59870;50.106;8.580;2024-01-30T06:50:46;4.50;93.70
11246;DHT22;59870;50.106;8.580;2024-01-30T06:53:15;4.50;93.70
11246;DHT22;59870;50.106;8.580;2024-01-30T06:55:42;4.50;93.80
11246;DHT22;59870;50.106;8.580;2024-01-30T06:58:10;4.50;93.70
11246;DHT22;59870;50.106;8.580;2024-01-30T07:00:37;4.50;93.80
11246;DHT22;59870;50.106;8.580;2024-01-30T07:03:06;4.50;93.90
11246;DHT22;59870;50.106;8.580;2024-01-30T07:05:33;4.40;93.80
11246;DHT22;59870;50.106;8.580;2024-01-30T07:08:02;4.40;93.80
11246;DHT22;59870;50.106;8.580;2024-01-30T07:10:31;4.40;93.90
11246;DHT22;59870;50.106;8.580;2024-01-30T07:13:37;4.50;93.90
11246;DHT22;59870;50.106;8.580;2024-01-30T07:16:13;4.40;94.10
11246;DHT22;59870;50.106;8.580;2024-01-30T07:18:49;4.70;94.20
11246;DHT22;59870;50.106;8.580;2024-01-30T07:22:34;4.50;94.00
11246;DHT22;59870;50.106;8.580;2024-01-30T07:25:44;4.40;94.20
11246;DHT22;59870;50.106;8.580;2024-01-30T07:28:16;4.70;94.40
11246;DHT22;59870;50.106;8.580;2024-01-30T07:30:45;4.50;94.30
11246;DHT22;59870;50.106;8.580;2024-01-30T07:33:14;4.50;94.40
11246;DHT22;59870;50.106;8.580;2024-01-30T07:35:41;4.50;94.30
11246;DHT22;59870;50.106;8.580;2024-01-30T07:38:09;4.50;94.30
11246;DHT22;59870;50.106;8.580;2024-01-30T07:40:37;4.40;94.30
11246;DHT22;59870;50.106;8.580;2024-01-30T07:43:05;4.50;94.20
11246;DHT22;59870;50.106;8.580;2024-01-30T07:45:33;4.60;94.20
11246;DHT22;59870;50.106;8.580;2024-01-30T07:48:01;4.30;94.10
11246;DHT22;59870;50.106;8.580;2024-01-30T07:50:28;4.80;94.40
11246;DHT22;59870;50.106;8.580;2024-01-30T07:52:57;4.60;94.40
11246;DHT22;59870;50.106;8.580;2024-01-30T07:55:25;4.90;94.60
11246;DHT22;59870;50.106;8.580;2024-01-30T07:57:55;4.60;94.60
11246;DHT22;59870;50.106;8.580;2024-01-30T08:00:24;4.70;94.60
11246;DHT22;59870;50.106;8.580;2024-01-30T08:02:51;4.90;94.70
11246;DHT22;59870;50.106;8.580;2024-01-30T08:05:22;4.70;94.70
11246;DHT22;59870;50.106;8.580;2024-01-30T08:07:52;4.80;94.70
11246;DHT22;59870;50.106;8.580;2024-01-30T08:10:20;4.80;94.70
11246;DHT22;59870;50.106;8.580;2024-01-30T08:12:48;4.80;94.80
11246;DHT22;59870;50.106;8.580;2024-01-30T08:15:16;4.90;94.90
11246;DHT22;59870;50.106;8.580;2024-01-30T08:17:43;4.90;95.00
11246;DHT22;59870;50.106;8.580;2024-01-30T08:20:12;5.00;95.10
11246;DHT22;59870;50.106;8.580;2024-01-30T08:22:41;5.20;95.30
11246;DHT22;59870;50.106;8.580;2024-01-30T08:25:09;5.10;95.30
11246;DHT22;59870;50.106;8.580;2024-01-30T08:27:37;5.10;95.30
11246;DHT22;59870;50.106;8.580;2024-01-30T08:30:07;5.20;95.40
11246;DHT22;59870;50.106;8.580;2024-01-30T08:33:00;5.20;95.50
11246;DHT22;59870;50.106;8.580;2024-01-30T08:35:55;5.30;95.60
11246;DHT22;59870;50.106;8.580;2024-01-30T08:38:51;5.40;95.80
11246;DHT22;59870;50.106;8.580;2024-01-30T08:41:27;5.60;96.20
11246;DHT22;59870;50.106;8.580;2024-01-30T08:44:35;5.70;96.10
11246;DHT22;59870;50.106;8.580;2024-01-30T08:47:37;5.90;96.10
11246;DHT22;59870;50.106;8.580;2024-01-30T08:50:31;5.60;96.10
11246;DHT22;59870;50.106;8.580;2024-01-30T08:53:03;6.00;96.30
11246;DHT22;59870;50.106;8.580;2024-01-30T08:55:43;6.10;96.40
11246;DHT22;59870;50.106;8.580;2024-01-30T08:58:31;6.50;96.40
11246;DHT22;59870;50.106;8.580;2024-01-30T09:01:56;6.40;96.40
11246;DHT22;59870;50.106;8.580;2024-01-30T09:09:48;6.50;96.20
11246;DHT22;59870;50.106;8.580;2024-01-30T09:12:34;6.70;96.10
11246;DHT22;59870;50.106;8.580;2024-01-30T09:15:06;6.90;96.00
11246;DHT22;59870;50.106;8.580;2024-01-30T09:17:35;6.50;96.00
11246;DHT22;59870;50.106;8.580;2024-01-30T09:20:07;7.10;96.20
11246;DHT22;59870;50.106;8.580;2024-01-30T09:22:37;6.90;96.10
11246;DHT22;59870;50.106;8.580;2024-01-30T09:25:08;7.20;96.20
11246;DHT22;59870;50.106;8.580;2024-01-30T09:27:38;7.00;96.10
11246;DHT22;59870;50.106;8.580;2024-01-30T09:30:07;7.30;96.30
11246;DHT22;59870;50.106;8.580;2024-01-30T09:32:36;7.10;96.40
11246;DHT22;59870;50.106;8.580;2024-01-30T09:35:08;7.20;96.50
11246;DHT22;59870;50.106;8.580;2024-01-30T09:40:33;7.40;96.90
11246;DHT22;59870;50.106;8.580;2024-01-30T09:43:01;7.80;96.70
11246;DHT22;59870;50.106;8.580;2024-01-30T09:45:30;7.80;97.10
11246;DHT22;59870;50.106;8.580;2024-01-30T09:47:59;7.90;97.30
11246;DHT22;59870;50.106;8.580;2024-01-30T09:50:28;7.60;97.20
11246;DHT22;59870;50.106;8.580;2024-01-30T09:52:58;7.70;97.20
11246;DHT22;59870;50.106;8.580;2024-01-30T09:55:53;8.10;97.50
11246;DHT22;59870;50.106;8.580;2024-01-30T09:58:23;7.80;97.40
11246;DHT22;59870;50.106;8.580;2024-01-30T10:01:25;7.90;97.40
11246;DHT22;59870;50.106;8.580;2024-01-30T10:03:55;8.20;97.30
11246;DHT22;59870;50.106;8.580;2024-01-30T10:06:24;8.20;97.20
11246;DHT22;59870;50.106;8.580;2024-01-30T10:08:53;8.10;97.10
11246;DHT22;59870;50.106;8.580;2024-01-30T10:11:20;8.20;97.10
11246;DHT22;59870;50.106;8.580;2024-01-30T10:13:49;8.20;97.40
11246;DHT22;59870;50.106;8.580;2024-01-30T10:16:16;8.20;97.00
11246;DHT22;59870;50.106;8.580;2024-01-30T10:18:44;8.30;97.00
11246;DHT22;59870;50.106;8.580;2024-01-30T10:21:12;8.40;96.80
11246;DHT22;59870;50.106;8.580;2024-01-30T10:23:40;8.70;96.80
11246;DHT22;59870;50.106;8.580;2024-01-30T10:26:08;8.60;96.80
11246;DHT22;59870;50.106;8.580;2024-01-30T10:28:38;8.90;97.00
11246;DHT22;59870;50.106;8.580;2024-01-30T10:31:20;9.00;97.10
11246;DHT22;59870;50.106;8.580;2024-01-30T10:34:06;8.30;97.00
11246;DHT22;59870;50.106;8.580;2024-01-30T10:36:46;8.70;96.80
11246;DHT22;59870;50.106;8.580;2024-01-30T10:43:02;8.90;96.90
11246;DHT22;59870;50.106;8.580;2024-01-30T10:45:32;8.90;96.50
11246;DHT22;59870;50.106;8.580;2024-01-30T10:52:08;9.00;96.80
11246;DHT22;59870;50.106;8.580;2024-01-30T10:54:37;9.40;96.90
11246;DHT22;59870;50.106;8.580;2024-01-30T10:57:06;9.10;96.50
11246;DHT22;59870;50.106;8.580;2024-01-30T10:59:34;9.20;96.80
11246;DHT22;59870;50.106;8.580;2024-01-30T11:02:02;9.20;96.70
11246;DHT22;59870;50.106;8.580;2024-01-30T11:04:43;9.30;96.60
11246;DHT22;59870;50.106;8.580;2024-01-30T11:07:15;9.40;96.60
11246;DHT22;59870;50.106;8.580;2024-01-30T11:09:51;9.50;96.60
11246;DHT22;59870;50.106;8.580;2024-01-30T11:12:25;9.50;96.30
11246;DHT22;59870;50.106;8.580;2024-01-30T11:15:07;9.60;96.30
11246;DHT22;59870;50.106;8.580;2024-01-30T11:17:45;9.60;96.20
11246;DHT22;59870;50.106;8.580;2024-01-30T11:22:53;9.80;95.80
11246;DHT22;59870;50.106;8.580;2024-01-30T11:25:22;9.80;95.90
11246;DHT22;59870;50.106;8.580;2024-01-30T11:27:52;9.90;95.70
11246;DHT22;59870;50.106;8.580;2024-01-30T11:30:24;9.90;95.50
11246;DHT22;59870;50.106;8.580;2024-01-30T11:35:34;10.10;95.00
11246;DHT22;59870;50.106;8.580;2024-01-30T11:38:03;10.20;95.20
11246;DHT22;59870;50.106;8.580;2024-01-30T11:40:32;10.20;95.30
11246;DHT22;59870;50.106;8.580;2024-01-30T11:43:04;10.30;95.20
11246;DHT22;59870;50.106;8.580;2024-01-30T11:45:33;10.40;94.90
11246;DHT22;59870;50.106;8.580;2024-01-30T11:48:02;10.40;95.10
11246;DHT22;59870;50.106;8.580;2024-01-30T11:50:32;10.50;94.90
11246;DHT22;59870;50.106;8.580;2024-01-30T11:53:00;10.60;95.10
11246;DHT22;59870;50.106;8.580;2024-01-30T11:55:29;10.70;94.70
11246;DHT22;59870;50.106;8.580;2024-01-30T11:58:02;11.10;95.00
11246;DHT22;59870;50.106;8.580;2024-01-30T12:00:31;10.90;94.40
11246;DHT22;59870;50.106;8.580;2024-01-30T12:03:00;10.90;94.40
11246;DHT22;59870;50.106;8.580;2024-01-30T12:05:32;11.00;94.30
11246;DHT22;59870;50.106;8.580;2024-01-30T12:08:06;11.60;94.30
11246;DHT22;59870;50.106;8.580;2024-01-30T12:10:36;11.10;94.00
11246;DHT22;59870;50.106;8.580;2024-01-30T12:13:07;11.10;93.80
11246;DHT22;59870;50.106;8.580;2024-01-30T12:15:36;11.50;94.00
11246;DHT22;59870;50.106;8.580;2024-01-30T12:18:05;11.30;93.90
11246;DHT22;59870;50.106;8.580;2024-01-30T12:20:34;11.30;93.90
11246;DHT22;59870;50.106;8.580;2024-01-30T12:23:02;11.70;93.90
11246;DHT22;59870;50.106;8.580;2024-01-30T12:25:30;11.40;93.60
11246;DHT22;59870;50.106;8.580;2024-01-30T12:28:02;11.50;93.50
11246;DHT22;59870;50.106;8.580;2024-01-30T12:30:31;11.50;93.50
11246;DHT22;59870;50.106;8.580;2024-01-30T12:32:58;11.50;93.50
11246;DHT22;59870;50.106;8.580;2024-01-30T12:35:29;11.50;93.50
11246;DHT22;59870;50.106;8.580;2024-01-30T12:38:00;11.90;93.40
11246;DHT22;59870;50.106;8.580;2024-01-30T12:44:17;11.30;93.30
11246;DHT22;59870;50.106;8.580;2024-01-30T13:00:06;12.00;92.80
11246;DHT22;59870;50.106;8.580;2024-01-30T13:12:48;12.20;92.30
11246;DHT22;59870;50.106;8.580;2024-01-30T13:51:43;12.40;92.20
11246;DHT22;59870;50.106;8.580;2024-01-30T14:05:12;12.50;92.20
11246;DHT22;59870;50.106;8.580;2024-01-30T14:20:08;12.60;92.10
11246;DHT22;59870;50.106;8.580;2024-01-30T14:22:36;12.60;91.90
11246;DHT22;59870;50.106;8.580;2024-01-30T14:25:12;12.60;92.10
11246;DHT22;59870;50.106;8.580;2024-01-30T14:27:40;12.60;92.10
11246;DHT22;59870;50.106;8.580;2024-01-30T14:30:10;12.70;92.00
11246;DHT22;59870;50.106;8.580;2024-01-30T14:32:39;12.60;92.00
11246;DHT22;59870;50.106;8.580;2024-01-30T14:35:08;12.90;91.90
11246;DHT22;59870;50.106;8.580;2024-01-30T14:37:37;12.70;92.20
11246;DHT22;59870;50.106;8.580;2024-01-30T14:40:06;12.60;92.10
11246;DHT22;59870;50.106;8.580;2024-01-30T14:42:36;12.60;92.10
11246;DHT22;59870;50.106;8.580;2024-01-30T14:45:05;12.90;92.30
11246;DHT22;59870;50.106;8.580;2024-01-30T14:47:34;12.60;92.20
11246;DHT22;59870;50.106;8.580;2024-01-30T14:50:30;12.60;92.20
11246;DHT22;59870;50.106;8.580;2024-01-30T14:52:58;12.60;92.30
11246;DHT22;59870;50.106;8.580;2024-01-30T14:55:28;12.90;92.00
11246;DHT22;59870;50.106;8.580;2024-01-30T14:57:58;12.60;92.10
11246;DHT22;59870;50.106;8.580;2024-01-30T15:00:50;12.90;92.10
11246;DHT22;59870;50.106;8.580;2024-01-30T15:03:36;12.60;91.80
11246;DHT22;59870;50.106;8.580;2024-01-30T15:06:05;12.90;92.00
11246;DHT22;59870;50.106;8.580;2024-01-30T15:08:33;12.60;91.90
11246;DHT22;59870;50.106;8.580;2024-01-30T15:11:03;12.60;92.00
11246;DHT22;59870;50.106;8.580;2024-01-30T15:13:34;12.90;92.30
11246;DHT22;59870;50.106;8.580;2024-01-30T15:22:28;12.60;92.40
11246;DHT22;59870;50.106;8.580;2024-01-30T15:24:56;12.90;92.20
11246;DHT22;59870;50.106;8.580;2024-01-30T15:27:32;12.90;91.90
11246;DHT22;59870;50.106;8.580;2024-01-30T15:30:00;12.90;92.00
11246;DHT22;59870;50.106;8.580;2024-01-30T15:32:30;13.00;92.00
11246;DHT22;59870;50.106;8.580;2024-01-30T15:34:59;12.90;91.90
11246;DHT22;59870;50.106;8.580;2024-01-30T15:37:32;12.60;92.00
11246;DHT22;59870;50.106;8.580;2024-01-30T15:40:05;12.60;92.10
11246;DHT22;59870;50.106;8.580;2024-01-30T15:42:34;12.60;92.10
11246;DHT22;59870;50.106;8.580;2024-01-30T15:45:03;12.60;92.20
11246;DHT22;59870;50.106;8.580;2024-01-30T15:47:31;12.60;92.10
11246;DHT22;59870;50.106;8.580;2024-01-30T15:50:00;12.60;92.20
11246;DHT22;59870;50.106;8.580;2024-01-30T15:52:28;12.50;91.90
11246;DHT22;59870;50.106;8.580;2024-01-30T15:55:00;12.50;92.10
11246;DHT22;59870;50.106;8.580;2024-01-30T15:57:51;12.60;92.40
11246;DHT22;59870;50.106;8.580;2024-01-30T16:00:21;12.60;92.40
11246;DHT22;59870;50.106;8.580;2024-01-30T16:02:50;12.50;92.10
11246;DHT22;59870;50.106;8.580;2024-01-30T16:09:10;12.60;92.50
11246;DHT22;59870;50.106;8.580;2024-01-30T16:11:38;12.50;92.40
11246;DHT22;59870;50.106;8.580;2024-01-30T16:14:06;12.80;92.50
11246;DHT22;59870;50.106;8.580;2024-01-30T16:16:36;12.50;92.20
11246;DHT22;59870;50.106;8.580;2024-01-30T16:19:50;12.50;92.50
11246;DHT22;59870;50.106;8.580;2024-01-30T16:22:37;12.50;92.50
11246;DHT22;59870;50.106;8.580;2024-01-30T16:25:06;12.50;92.00
11246;DHT22;59870;50.106;8.580;2024-01-30T16:28:01;12.60;92.20
11246;DHT22;59870;50.106;8.580;2024-01-30T16:44:38;12.50;92.60
11246;DHT22;59870;50.106;8.580;2024-01-30T16:47:06;12.50;92.60
11246;DHT22;59870;50.106;8.580;2024-01-30T16:49:56;12.50;92.40
11246;DHT22;59870;50.106;8.580;2024-01-30T16:55:54;12.40;92.60
11246;DHT22;59870;50.106;8.580;2024-01-30T16:58:42;12.80;92.60
11246;DHT22;59870;50.106;8.580;2024-01-30T17:01:29;12.40;92.50
11246;DHT22;59870;50.106;8.580;2024-01-30T17:24:01;12.40;93.00
11246;DHT22;59870;50.106;8.580;2024-01-30T17:26:52;12.30;92.80
11246;DHT22;59870;50.106;8.580;2024-01-30T17:29:46;12.70;93.30
11246;DHT22;59870;50.106;8.580;2024-01-30T17:36:46;12.30;93.30
11246;DHT22;59870;50.106;8.580;2024-01-30T17:40:34;12.30;93.30
11246;DHT22;59870;50.106;8.580;2024-01-30T17:43:27;12.30;93.40
11246;DHT22;59870;50.106;8.580;2024-01-30T17:50:26;12.70;93.70
11246;DHT22;59870;50.106;8.580;2024-01-30T17:53:18;12.70;93.50
11246;DHT22;59870;50.106;8.580;2024-01-30T17:56:07;12.60;93.80
11246;DHT22;59870;50.106;8.580;2024-01-30T17:59:01;12.80;93.90
11246;DHT22;59870;50.106;8.580;2024-01-30T18:01:48;12.40;93.90
11246;DHT22;59870;50.106;8.580;2024-01-30T18:15:52;12.10;93.80
11246;DHT22;59870;50.106;8.580;2024-01-30T18:18:30;12.30;94.80
11246;DHT22;59870;50.106;8.580;2024-01-30T18:21:07;12.50;94.30
11246;DHT22;59870;50.106;8.580;2024-01-30T18:23:38;12.50;94.20
11246;DHT22;59870;50.106;8.580;2024-01-30T18:26:13;12.60;94.20
11246;DHT22;59870;50.106;8.580;2024-01-30T18:41:28;12.50;94.00
11246;DHT22;59870;50.106;8.580;2024-01-30T18:44:33;12.10;93.80
11246;DHT22;59870;50.106;8.580;2024-01-30T18:50:52;12.00;94.00
11246;DHT22;59870;50.106;8.580;2024-01-30T19:03:38;12.40;94.30
11246;DHT22;59870;50.106;8.580;2024-01-30T19:15:29;12.40;94.30
11246;DHT22;59870;50.106;8.580;2024-01-30T19:27:28;12.40;94.30
11246;DHT22;59870;50.106;8.580;2024-01-30T19:29:58;12.10;94.00
11246;DHT22;59870;50.106;8.580;2024-01-30T19:32:25;12.70;94.20
11246;DHT22;59870;50.106;8.580;2024-01-30T19:34:57;12.40;94.20
11246;DHT22;59870;50.106;8.580;2024-01-30T19:40:41;12.40;94.10
11246;DHT22;59870;50.106;8.580;2024-01-30T19:43:09;12.40;93.90
11246;DHT22;59870;50.106;8.580;2024-01-30T19:45:41;12.20;93.70
11246;DHT22;59870;50.106;8.580;2024-01-30T19:48:09;12.70;93.70
11246;DHT22;59870;50.106;8.580;2024-01-30T19:57:13;12.40;93.60
11246;DHT22;59870;50.106;8.580;2024-01-30T19:59:45;12.40;93.50
11246;DHT22;59870;50.106;8.580;2024-01-30T20:11:44;12.30;93.70